Time;durP1;ratioP1;P1;durP2;ratioP2;P2;SDS_P1;SDS_P2;PMS_P1;PMS_P2;Temp;Humidity;BMP_temperature;BMP_pressure;BME280_temperature;BME280_humidity;BME280_pressure;Samples;Min_cycle;Max_cycle;Signal;HPM_P1;HPM_P2
2023/05/31 00:02:14;;;;;;;0.20;0.20;;;15.30;99.90;;;;;;5071727;28;20012;-78
2023/05/31 00:04:40;;;;;;;0.10;0.10;;;15.30;99.90;;;;;;5071478;28;20084;-84
2023/05/31 00:07:06;;;;;;;0.20;0.20;;;15.30;99.90;;;;;;5069090;28;20031;-80
2023/05/31 00:09:32;;;;;;;0.20;0.20;;;15.30;99.90;;;;;;5068112;28;20021;-76
2023/05/31 00:11:58;;;;;;;0.20;0.20;;;15.30;99.90;;;;;;5066685;28;20025;-76
2023/05/31 00:14:24;;;;;;;0.20;0.20;;;15.20;99.90;;;;;;5063945;28;20070;-80
2023/05/31 00:16:50;;;;;;;0.20;0.20;;;15.20;99.90;;;;;;5070592;28;20021;-84
2023/05/31 00:19:16;;;;;;;0.57;0.57;;;15.20;99.90;;;;;;5065718;28;20102;-80
2023/05/31 00:21:47;;;;;;;0.20;0.20;;;15.20;99.90;;;;;;5069774;28;20093;-80
2023/05/31 00:24:13;;;;;;;0.20;0.20;;;15.20;99.90;;;;;;5070838;28;20034;-85
2023/05/31 00:26:39;;;;;;;0.20;0.20;;;16.20;99.90;;;;;;5069270;28;20029;-83
2023/05/31 00:29:05;;;;;;;0.10;0.10;;;15.10;99.90;;;;;;5070019;28;20017;-82
2023/05/31 00:31:31;;;;;;;0.20;0.20;;;15.10;99.90;;;;;;5063535;28;20028;-86
2023/05/31 00:33:57;;;;;;;0.10;0.10;;;15.10;99.90;;;;;;5063955;28;20017;-74
2023/05/31 00:36:23;;;;;;;0.20;0.20;;;15.10;99.90;;;;;;5064263;28;20530;-74
2023/05/31 00:38:49;;;;;;;0.20;0.20;;;15.10;99.90;;;;;;5063172;28;20233;-82
2023/05/31 00:41:15;;;;;;;0.10;0.10;;;15.10;99.90;;;;;;5063291;28;20029;-86
2023/05/31 00:43:41;;;;;;;0.10;0.10;;;15.10;99.90;;;;;;5062464;28;20490;-75
2023/05/31 00:46:13;;;;;;;0.20;0.20;;;15.10;99.90;;;;;;5062509;28;20035;-82
2023/05/31 00:48:42;;;;;;;0.17;0.17;;;15.10;99.90;;;;;;5061913;28;20403;-80
2023/05/31 00:51:08;;;;;;;0.28;0.28;;;15.10;99.90;;;;;;5062446;28;20274;-82
2023/05/31 00:53:34;;;;;;;0.63;0.63;;;15.10;99.90;;;;;;5063651;28;20530;-86
2023/05/31 00:56:01;;;;;;;0.20;0.20;;;15.10;99.90;;;;;;5062853;28;20325;-74
2023/05/31 00:58:27;;;;;;;0.20;0.20;;;15.10;99.90;;;;;;5064865;28;20076;-79
2023/05/31 01:00:55;;;;;;;0.10;0.10;;;15.10;99.90;;;;;;5072932;28;20150;-84
2023/05/31 01:03:21;;;;;;;0.68;0.68;;;15.00;99.90;;;;;;5071143;28;20038;-84
2023/05/31 01:05:47;;;;;;;0.20;0.20;;;15.00;99.90;;;;;;5073455;28;20021;-81
2023/05/31 01:08:14;;;;;;;0.10;0.10;;;15.00;99.90;;;;;;5071211;28;20020;-83
2023/05/31 01:10:41;;;;;;;0.10;0.10;;;15.00;99.90;;;;;;5066837;28;20028;-88
2023/05/31 01:13:31;;;;;;;0.17;0.17;;;15.00;99.90;;;;;;5064671;28;20317;-74
2023/05/31 01:16:10;;;;;;;0.20;0.20;;;15.00;99.90;;;;;;5061839;28;20043;-73
2023/05/31 01:18:48;;;;;;;0.10;0.10;;;15.00;99.90;;;;;;5062183;28;20445;-78
2023/05/31 01:21:19;;;;;;;0.20;0.20;;;14.90;99.90;;;;;;5062613;28;20116;-79
2023/05/31 01:24:25;;;;;;;0.15;0.15;;;15.00;99.90;;;;;;5061927;28;20020;-90
2023/05/31 01:26:53;;;;;;;0.10;0.10;;;14.90;99.90;;;;;;5058941;28;20025;-84
2023/05/31 01:29:23;;;;;;;0.10;0.10;;;14.90;99.90;;;;;;5063633;28;20028;-87
2023/05/31 01:31:51;;;;;;;0.20;0.20;;;15.00;99.90;;;;;;5062463;28;20370;-84
2023/05/31 01:34:17;;;;;;;0.10;0.10;;;15.00;99.90;;;;;;5062037;28;20020;-80
2023/05/31 01:36:42;;;;;;;2.25;2.15;;;15.00;99.90;;;;;;5061837;28;20571;-77
2023/05/31 01:39:10;;;;;;;3.47;3.28;;;15.00;99.90;;;;;;5061303;28;20074;-79
2023/05/31 01:41:42;;;;;;;0.20;0.20;;;15.00;99.90;;;;;;5068244;28;20020;-87
2023/05/31 01:44:09;;;;;;;0.10;0.10;;;15.00;99.90;;;;;;5071376;28;20021;-79
2023/05/31 01:46:42;;;;;;;0.20;0.20;;;15.00;99.90;;;;;;5064482;28;20456;-84
2023/05/31 01:49:09;;;;;;;0.50;0.50;;;14.90;99.90;;;;;;5076347;28;20016;-80
2023/05/31 01:51:37;;;;;;;0.20;0.20;;;14.90;99.90;;;;;;5068486;28;20036;-80
2023/05/31 01:54:04;;;;;;;0.20;0.20;;;14.90;99.90;;;;;;5077560;28;20040;-79
2023/05/31 01:56:31;;;;;;;0.28;0.28;;;14.90;99.90;;;;;;5078905;28;20031;-78
2023/05/31 01:58:58;;;;;;;0.20;0.20;;;15.80;99.90;;;;;;5076019;28;20021;-81
2023/05/31 02:01:24;;;;;;;0.20;0.20;;;14.90;99.90;;;;;;5070655;28;20025;-82
2023/05/31 02:03:51;;;;;;;0.30;0.30;;;14.80;99.90;;;;;;5075071;28;20043;-87
2023/05/31 02:06:17;;;;;;;0.20;0.20;;;14.80;99.90;;;;;;5071972;28;20025;-78
2023/05/31 02:09:03;;;;;;;0.20;0.20;;;14.80;99.90;;;;;;5072976;28;20020;-86
2023/05/31 02:11:30;;;;;;;0.20;0.20;;;14.80;99.90;;;;;;5012880;28;20084;-88
2023/05/31 02:14:02;;;;;;;0.10;0.10;;;14.80;99.90;;;;;;5000020;28;20034;-76
2023/05/31 02:16:28;;;;;;;0.20;0.20;;;14.70;99.90;;;;;;5000526;28;20093;-76
2023/05/31 02:18:56;;;;;;;2.05;0.90;;;14.70;99.90;;;;;;5002780;28;20401;-76
2023/05/31 02:21:22;;;;;;;0.20;0.20;;;14.70;99.90;;;;;;4992662;28;20026;-77
2023/05/31 02:23:48;;;;;;;0.20;0.20;;;14.60;99.90;;;;;;4998904;28;20492;-73
2023/05/31 02:26:16;;;;;;;0.30;0.30;;;14.70;99.90;;;;;;5004109;28;20069;-83
2023/05/31 02:28:42;;;;;;;2.95;2.72;;;14.70;99.90;;;;;;5007286;28;20026;-81
2023/05/31 02:31:08;;;;;;;1.40;1.30;;;14.60;99.90;;;;;;4999924;28;20316;-82
2023/05/31 02:33:34;;;;;;;0.20;0.20;;;14.70;99.90;;;;;;4999495;28;20107;-86
2023/05/31 02:36:00;;;;;;;0.25;0.25;;;14.60;99.90;;;;;;5000033;28;20029;-90
2023/05/31 02:38:26;;;;;;;1.05;1.05;;;14.70;99.90;;;;;;5009738;28;20030;-85
2023/05/31 02:40:51;;;;;;;0.20;0.20;;;14.70;99.90;;;;;;5015760;28;20072;-80
2023/05/31 02:43:17;;;;;;;0.10;0.10;;;14.80;99.90;;;;;;5068268;28;20315;-89
2023/05/31 02:45:43;;;;;;;0.10;0.10;;;14.70;99.90;;;;;;5077511;28;20082;-82
2023/05/31 02:48:09;;;;;;;0.10;0.10;;;14.70;99.90;;;;;;5056986;28;20433;-91
2023/05/31 02:50:35;;;;;;;0.45;0.45;;;14.70;99.90;;;;;;5064955;28;20033;-84
2023/05/31 02:53:03;;;;;;;0.30;0.30;;;14.60;99.90;;;;;;5064658;28;20564;-92
2023/05/31 02:55:30;;;;;;;0.20;0.20;;;14.70;99.90;;;;;;5067188;28;20202;-79
2023/05/31 02:57:55;;;;;;;0.28;0.28;;;14.70;99.90;;;;;;5070528;28;20051;-81
2023/05/31 03:00:21;;;;;;;0.35;0.35;;;14.60;99.90;;;;;;5073340;28;20297;-84
2023/05/31 03:02:47;;;;;;;0.20;0.20;;;14.60;99.90;;;;;;5073798;28;20027;-83
2023/05/31 03:05:13;;;;;;;0.20;0.20;;;14.60;99.90;;;;;;5063169;28;20077;-92
2023/05/31 03:07:39;;;;;;;2.28;2.17;;;14.50;99.90;;;;;;5063354;28;20044;-83
2023/05/31 03:10:10;;;;;;;0.20;0.20;;;14.50;99.90;;;;;;5063906;28;20079;-86
2023/05/31 03:12:36;;;;;;;0.20;0.20;;;14.50;99.90;;;;;;5044596;28;20274;-85
2023/05/31 03:15:03;;;;;;;0.15;0.15;;;14.50;99.90;;;;;;5061469;28;20060;-82
2023/05/31 03:17:29;;;;;;;0.20;0.20;;;14.50;99.90;;;;;;5043051;28;20664;-79
2023/05/31 03:19:55;;;;;;;0.15;0.15;;;14.50;99.90;;;;;;5042774;28;20044;-75
2023/05/31 03:22:22;;;;;;;0.30;0.30;;;14.50;99.90;;;;;;5061275;28;20209;-84
2023/05/31 03:24:48;;;;;;;0.20;0.20;;;14.50;99.90;;;;;;5066816;28;20570;-81
2023/05/31 03:27:14;;;;;;;0.20;0.20;;;14.60;99.90;;;;;;5070762;28;20044;-78
2023/05/31 03:29:42;;;;;;;0.20;0.20;;;14.60;99.90;;;;;;5071677;28;20021;-84
2023/05/31 03:32:08;;;;;;;0.10;0.10;;;14.60;99.90;;;;;;5070941;28;20017;-75
2023/05/31 03:34:34;;;;;;;0.20;0.20;;;14.60;99.90;;;;;;5067811;28;20120;-79
2023/05/31 03:37:01;;;;;;;0.20;0.20;;;14.60;99.90;;;;;;5068914;28;20235;-75
2023/05/31 03:39:26;;;;;;;0.30;0.30;;;14.60;99.90;;;;;;5069403;28;20055;-79
2023/05/31 03:41:55;;;;;;;0.20;0.20;;;14.70;99.90;;;;;;5071939;28;20017;-82
2023/05/31 03:44:21;;;;;;;1.63;1.52;;;14.90;99.90;;;;;;5071108;28;20656;-82
2023/05/31 03:46:47;;;;;;;0.20;0.20;;;14.70;99.90;;;;;;5071518;28;20024;-76
2023/05/31 03:49:12;;;;;;;0.20;0.20;;;14.70;99.90;;;;;;5070757;28;20021;-89
2023/05/31 03:51:38;;;;;;;0.10;0.10;;;14.60;99.90;;;;;;5069843;28;20021;-81
2023/05/31 03:54:04;;;;;;;0.10;0.10;;;14.80;99.90;;;;;;5047243;28;20036;-82
2023/05/31 03:56:30;;;;;;;0.20;0.20;;;14.80;99.90;;;;;;5067367;28;20526;-75
2023/05/31 03:58:55;;;;;;;0.40;0.40;;;14.80;99.90;;;;;;5070857;28;20572;-85
2023/05/31 04:01:21;;;;;;;0.30;0.30;;;14.80;99.90;;;;;;5076421;28;20231;-82
2023/05/31 04:03:47;;;;;;;0.10;0.10;;;14.80;99.90;;;;;;5075254;28;20467;-88
2023/05/31 04:06:12;;;;;;;3.70;3.50;;;14.80;99.90;;;;;;5075384;28;20025;-79
2023/05/31 04:08:39;;;;;;;0.10;0.10;;;14.90;99.90;;;;;;5067480;28;20020;-74
2023/05/31 04:11:04;;;;;;;0.20;0.20;;;14.90;99.90;;;;;;5067903;28;20021;-79
2023/05/31 04:13:30;;;;;;;0.20;0.20;;;15.00;99.90;;;;;;5066661;28;20502;-83
2023/05/31 04:15:56;;;;;;;0.20;0.20;;;15.20;99.90;;;;;;5067868;28;20690;-79
2023/05/31 04:18:22;;;;;;;0.17;0.17;;;15.00;99.90;;;;;;5065137;28;20031;-89
2023/05/31 04:20:47;;;;;;;0.17;0.17;;;14.90;99.90;;;;;;5065280;28;20225;-85
2023/05/31 04:23:13;;;;;;;0.17;0.17;;;14.90;99.90;;;;;;5064952;28;20020;-75
2023/05/31 04:25:39;;;;;;;0.20;0.20;;;14.90;99.90;;;;;;5061753;28;20029;-83
2023/05/31 04:28:05;;;;;;;0.20;0.20;;;15.00;99.90;;;;;;5064762;28;20013;-79
2023/05/31 04:30:31;;;;;;;0.50;0.50;;;15.00;99.90;;;;;;5065374;28;20374;-81
2023/05/31 04:32:57;;;;;;;0.20;0.20;;;15.00;99.90;;;;;;5046281;28;20024;-89
2023/05/31 04:35:23;;;;;;;0.90;0.90;;;15.00;99.90;;;;;;5065546;28;20024;-80
2023/05/31 04:37:52;;;;;;;1.80;1.17;;;15.10;99.90;;;;;;5064573;28;20020;-76
2023/05/31 04:40:20;;;;;;;0.20;0.20;;;15.10;99.90;;;;;;5064656;28;20333;-77
2023/05/31 04:42:46;;;;;;;0.20;0.20;;;15.20;99.90;;;;;;5065789;28;20027;-81
2023/05/31 04:45:12;;;;;;;0.80;0.80;;;15.20;99.90;;;;;;5064510;28;20108;-75
2023/05/31 04:47:38;;;;;;;0.20;0.20;;;15.20;99.90;;;;;;5063686;28;20092;-83
2023/05/31 04:50:04;;;;;;;0.10;0.10;;;15.20;99.90;;;;;;5063175;28;20055;-87
2023/05/31 04:52:31;;;;;;;0.30;0.30;;;12.00;99.90;;;;;;5064146;28;20047;-80
2023/05/31 04:54:59;;;;;;;2.25;2.15;;;15.30;99.90;;;;;;5064508;28;20029;-79
2023/05/31 04:57:26;;;;;;;0.25;0.25;;;15.30;99.90;;;;;;5064366;28;20305;-86
2023/05/31 04:59:52;;;;;;;0.35;0.35;;;15.30;99.90;;;;;;5066283;28;20063;-92
2023/05/31 05:02:19;;;;;;;1.10;1.08;;;15.30;99.90;;;;;;5065969;28;20020;-83
2023/05/31 05:04:47;;;;;;;0.20;0.20;;;15.40;99.90;;;;;;5049584;28;20045;-83
2023/05/31 05:07:13;;;;;;;0.60;0.60;;;15.50;99.90;;;;;;5052609;28;20115;-76
2023/05/31 05:09:40;;;;;;;0.10;0.10;;;15.40;99.90;;;;;;5073116;28;20538;-75
2023/05/31 05:12:07;;;;;;;0.10;0.10;;;15.50;99.90;;;;;;5053538;28;20043;-81
2023/05/31 05:14:33;;;;;;;0.15;0.15;;;15.50;99.90;;;;;;5071015;28;20115;-76
2023/05/31 05:16:59;;;;;;;0.20;0.20;;;15.50;99.90;;;;;;5071418;28;20025;-90
2023/05/31 05:19:25;;;;;;;0.20;0.20;;;15.80;99.90;;;;;;5067001;28;20551;-86
2023/05/31 05:21:52;;;;;;;0.38;0.38;;;15.60;99.90;;;;;;5065546;28;20264;-83
2023/05/31 05:24:17;;;;;;;0.20;0.20;;;15.60;99.90;;;;;;5065145;28;20104;-82
2023/05/31 05:26:44;;;;;;;0.20;0.20;;;15.40;99.90;;;;;;5068532;28;20016;-92
2023/05/31 05:29:10;;;;;;;0.20;0.20;;;15.60;99.90;;;;;;5062995;28;20033;-78
2023/05/31 05:31:36;;;;;;;4.25;4.00;;;15.70;99.90;;;;;;5067085;28;20017;-86
2023/05/31 05:34:02;;;;;;;0.20;0.20;;;15.70;99.90;;;;;;5074903;28;20028;-81
2023/05/31 05:36:27;;;;;;;0.22;0.22;;;15.70;99.90;;;;;;5079906;28;20017;-83
2023/05/31 05:38:53;;;;;;;0.20;0.20;;;15.70;99.90;;;;;;5078569;28;20016;-80
2023/05/31 05:41:19;;;;;;;0.20;0.20;;;15.80;99.90;;;;;;5072876;28;20082;-75
2023/05/31 05:43:45;;;;;;;0.20;0.20;;;15.80;99.90;;;;;;5062385;28;20223;-74
2023/05/31 05:46:10;;;;;;;0.20;0.20;;;15.90;99.90;;;;;;5066406;28;20112;-86
2023/05/31 05:48:36;;;;;;;1.05;1.05;;;15.80;99.90;;;;;;5063717;28;20021;-73
2023/05/31 05:51:03;;;;;;;0.25;0.25;;;15.80;99.90;;;;;;5046230;28;20407;-80
2023/05/31 05:53:29;;;;;;;0.75;0.75;;;15.80;99.90;;;;;;5062558;28;20337;-74
2023/05/31 05:55:55;;;;;;;0.10;0.10;;;15.90;99.90;;;;;;5062088;28;20086;-75
2023/05/31 05:58:21;;;;;;;0.20;0.20;;;15.90;99.90;;;;;;5066202;28;20954;-90
2023/05/31 06:00:48;;;;;;;0.10;0.10;;;15.80;99.90;;;;;;5066215;28;20024;-89
2023/05/31 06:03:17;;;;;;;0.20;0.20;;;15.80;99.90;;;;;;5069036;28;20050;-80
2023/05/31 06:05:43;;;;;;;0.20;0.20;;;15.80;99.90;;;;;;5067176;28;20236;-79
2023/05/31 06:08:12;;;;;;;0.20;0.20;;;15.80;99.90;;;;;;5077499;28;20321;-76
2023/05/31 06:10:40;;;;;;;0.20;0.20;;;15.80;99.90;;;;;;5076430;28;20025;-73
2023/05/31 06:13:08;;;;;;;0.20;0.20;;;15.80;99.90;;;;;;5074843;28;20016;-77
2023/05/31 06:15:34;;;;;;;0.10;0.10;;;15.90;99.90;;;;;;5068128;28;20588;-77
2023/05/31 06:18:00;;;;;;;0.10;0.10;;;15.90;99.90;;;;;;5066904;28;20036;-74
2023/05/31 06:20:26;;;;;;;0.10;0.10;;;14.90;99.90;;;;;;5069443;28;20264;-77
2023/05/31 06:22:52;;;;;;;0.10;0.10;;;15.90;99.90;;;;;;5073340;28;20020;-76
2023/05/31 06:25:19;;;;;;;0.20;0.20;;;15.90;99.90;;;;;;5073938;28;20332;-74
2023/05/31 06:27:45;;;;;;;0.60;0.60;;;16.00;99.90;;;;;;5072152;28;20089;-74
2023/05/31 06:30:15;;;;;;;0.20;0.20;;;16.00;99.90;;;;;;5055323;28;20188;-74
2023/05/31 06:32:41;;;;;;;0.20;0.20;;;16.00;99.90;;;;;;5066975;28;20024;-84
2023/05/31 06:35:07;;;;;;;0.20;0.20;;;16.10;99.90;;;;;;5062566;28;20295;-75
2023/05/31 06:37:33;;;;;;;0.10;0.10;;;16.10;99.90;;;;;;5058041;28;20193;-77
2023/05/31 06:39:58;;;;;;;0.20;0.20;;;16.10;99.90;;;;;;5040229;28;20052;-75
2023/05/31 06:42:24;;;;;;;0.60;0.60;;;16.20;99.90;;;;;;5058265;28;20029;-75
2023/05/31 06:44:51;;;;;;;0.20;0.20;;;16.20;99.90;;;;;;5040176;28;20094;-75
2023/05/31 06:47:17;;;;;;;0.38;0.38;;;16.30;99.90;;;;;;5058793;28;20029;-74
2023/05/31 06:49:51;;;;;;;0.10;0.10;;;16.40;99.90;;;;;;5065117;28;20074;-77
2023/05/31 06:52:17;;;;;;;0.30;0.30;;;16.40;99.90;;;;;;5055412;28;20020;-76
2023/05/31 06:54:44;;;;;;;0.70;0.70;;;16.40;99.90;;;;;;5069361;28;20035;-74
2023/05/31 06:57:09;;;;;;;0.10;0.10;;;16.60;99.90;;;;;;5069579;28;20086;-78
2023/05/31 06:59:35;;;;;;;0.38;0.38;;;16.70;99.90;;;;;;5066453;28;20033;-74
2023/05/31 07:02:01;;;;;;;0.10;0.10;;;16.70;99.90;;;;;;5066040;28;20040;-83
2023/05/31 07:04:27;;;;;;;0.13;0.13;;;16.70;99.90;;;;;;5047334;28;20510;-81
2023/05/31 07:06:53;;;;;;;0.10;0.10;;;16.70;99.90;;;;;;5068984;28;20033;-78
2023/05/31 07:09:18;;;;;;;0.10;0.10;;;16.60;99.90;;;;;;5068495;28;20020;-88
2023/05/31 07:11:44;;;;;;;0.10;0.10;;;16.60;99.90;;;;;;5069306;28;20076;-88
2023/05/31 07:14:10;;;;;;;0.10;0.10;;;16.70;99.90;;;;;;5060622;28;20639;-75
2023/05/31 07:16:37;;;;;;;0.40;0.40;;;16.70;99.90;;;;;;5041122;28;20031;-74
2023/05/31 07:19:03;;;;;;;0.17;0.17;;;16.70;99.90;;;;;;5058075;28;20020;-75
2023/05/31 07:21:30;;;;;;;0.20;0.20;;;16.90;99.90;;;;;;5058328;28;20047;-74
2023/05/31 07:23:56;;;;;;;0.50;0.50;;;17.00;99.90;;;;;;5057318;28;20302;-76
2023/05/31 07:26:23;;;;;;;0.10;0.10;;;15.60;99.90;;;;;;5039870;28;20548;-76
2023/05/31 07:28:52;;;;;;;0.30;0.30;;;17.30;99.90;;;;;;5058279;28;20087;-76
2023/05/31 07:31:19;;;;;;;0.10;0.10;;;17.30;99.90;;;;;;5058524;28;20025;-76
2023/05/31 07:33:46;;;;;;;0.25;0.25;;;17.50;99.90;;;;;;5058682;28;20027;-76
2023/05/31 07:36:12;;;;;;;4.20;3.88;;;17.60;99.90;;;;;;5041348;28;20658;-76
2023/05/31 07:38:38;;;;;;;0.10;0.10;;;17.80;99.90;;;;;;5042065;28;20029;-79
2023/05/31 07:41:04;;;;;;;0.43;0.43;;;17.80;99.90;;;;;;5059268;28;20104;-86
2023/05/31 07:43:31;;;;;;;0.13;0.13;;;18.10;99.90;;;;;;5060694;28;20059;-80
2023/05/31 07:45:57;;;;;;;0.95;0.95;;;18.50;99.90;;;;;;5063658;28;20048;-86
2023/05/31 07:48:23;;;;;;;0.25;0.25;;;18.20;99.90;;;;;;5063520;28;20029;-87
2023/05/31 07:50:49;;;;;;;0.20;0.20;;;18.80;99.90;;;;;;5052749;28;20050;-92
2023/05/31 07:53:15;;;;;;;0.13;0.13;;;18.60;99.90;;;;;;5072734;28;20671;-88
2023/05/31 07:55:41;;;;;;;0.30;0.30;;;18.80;99.90;;;;;;5073912;28;20106;-80
2023/05/31 07:58:07;;;;;;;0.10;0.10;;;18.60;99.90;;;;;;5057014;28;20494;-91
2023/05/31 08:00:33;;;;;;;0.10;0.10;;;18.90;99.90;;;;;;5068100;28;20039;-77
2023/05/31 08:02:58;;;;;;;0.35;0.35;;;18.70;99.90;;;;;;5068582;28;20025;-89
2023/05/31 08:05:24;;;;;;;0.43;0.43;;;18.90;99.90;;;;;;5061714;28;20029;-81
2023/05/31 08:07:51;;;;;;;0.68;0.68;;;19.10;99.90;;;;;;5059808;28;20024;-85
2023/05/31 08:10:17;;;;;;;0.20;0.20;;;17.90;99.90;;;;;;5049768;28;20028;-76
2023/05/31 08:12:43;;;;;;;0.20;0.20;;;19.10;99.90;;;;;;5042775;28;20151;-87
2023/05/31 08:15:10;;;;;;;1.42;1.42;;;20.00;99.90;;;;;;5063062;28;20119;-84
2023/05/31 08:17:36;;;;;;;0.35;0.35;;;19.40;99.90;;;;;;5063042;28;20017;-77
2023/05/31 08:20:06;;;;;;;0.10;0.10;;;19.40;99.90;;;;;;5061427;28;20062;-77
2023/05/31 08:22:32;;;;;;;0.25;0.25;;;19.40;99.90;;;;;;5041512;28;20056;-79
2023/05/31 08:24:59;;;;;;;0.20;0.20;;;19.30;99.90;;;;;;5061111;28;20111;-86
2023/05/31 08:27:24;;;;;;;0.73;0.73;;;19.50;99.90;;;;;;5067068;28;20510;-76
2023/05/31 08:29:52;;;;;;;1.30;0.90;;;19.50;99.90;;;;;;5062037;28;20055;-77
2023/05/31 08:32:17;;;;;;;0.20;0.20;;;19.70;99.90;;;;;;5069844;28;20042;-86
2023/05/31 08:34:45;;;;;;;0.10;0.10;;;19.60;99.90;;;;;;5067055;28;20725;-85
2023/05/31 08:37:12;;;;;;;0.38;0.38;;;19.60;99.90;;;;;;5066107;28;20021;-78
2023/05/31 08:39:39;;;;;;;0.13;0.13;;;19.20;99.90;;;;;;5067176;28;20036;-85
2023/05/31 08:42:12;;;;;;;0.55;0.55;;;19.80;99.90;;;;;;5048755;28;20060;-75
2023/05/31 08:44:38;;;;;;;0.20;0.20;;;20.00;99.90;;;;;;5064840;28;20036;-93
2023/05/31 08:47:27;;;;;;;0.43;0.43;;;18.40;99.90;;;;;;5074264;28;20021;-90
2023/05/31 08:50:14;;;;;;;0.43;0.43;;;20.50;99.90;;;;;;5075689;28;20100;-88
2023/05/31 08:52:41;;;;;;;0.57;0.57;;;23.40;99.90;;;;;;5074800;28;20055;-75
2023/05/31 08:55:07;;;;;;;1.15;1.10;;;20.70;99.90;;;;;;5051310;28;20141;-80
2023/05/31 08:57:34;;;;;;;0.20;0.20;;;20.70;99.90;;;;;;5077906;28;20054;-81
2023/05/31 09:00:08;;;;;;;0.20;0.20;;;20.40;99.90;;;;;;5053806;28;20052;-76
2023/05/31 09:02:34;;;;;;;0.10;0.10;;;20.30;99.90;;;;;;5081259;28;20671;-82
2023/05/31 09:05:01;;;;;;;1.70;1.60;;;20.50;99.90;;;;;;5078843;28;20047;-92
2023/05/31 09:07:26;;;;;;;0.40;0.40;;;20.40;99.90;;;;;;5068881;28;20021;-77
2023/05/31 09:09:52;;;;;;;0.20;0.20;;;20.30;99.90;;;;;;5079944;28;20027;-76
2023/05/31 09:12:29;;;;;;;0.10;0.10;;;20.30;99.90;;;;;;5070427;28;20344;-82
2023/05/31 09:14:59;;;;;;;0.20;0.20;;;20.70;99.90;;;;;;5053489;28;20051;-77
2023/05/31 09:17:29;;;;;;;0.95;0.85;;;21.10;99.90;;;;;;5081036;28;20020;-81
2023/05/31 09:20:03;;;;;;;0.10;0.10;;;21.40;99.90;;;;;;5084551;28;20036;-78
2023/05/31 09:22:29;;;;;;;0.20;0.20;;;21.40;99.90;;;;;;5079513;28;20024;-77
2023/05/31 09:25:00;;;;;;;0.20;0.20;;;21.60;99.90;;;;;;5068526;28;20031;-76
2023/05/31 09:27:36;;;;;;;0.50;0.50;;;21.60;99.90;;;;;;5065218;28;20023;-77
2023/05/31 09:30:13;;;;;;;0.10;0.10;;;21.10;99.90;;;;;;5063658;28;20094;-76
2023/05/31 09:32:42;;;;;;;0.10;0.10;;;;;;;;;;5062258;28;20012;-75
2023/05/31 09:35:20;;;;;;;0.20;0.20;;;21.50;99.90;;;;;;5071852;28;20032;-80
2023/05/31 09:37:47;;;;;;;0.95;0.95;;;21.40;99.90;;;;;;5057417;28;20020;-79
2023/05/31 09:40:26;;;;;;;0.10;0.10;;;21.70;99.90;;;;;;5060429;28;20041;-80
2023/05/31 09:42:55;;;;;;;0.50;0.50;;;21.60;99.90;;;;;;5060660;28;20054;-77
2023/05/31 09:45:21;;;;;;;1.20;1.10;;;21.70;99.90;;;;;;5045226;28;20495;-76
2023/05/31 09:47:51;;;;;;;0.20;0.20;;;22.00;99.90;;;;;;5080972;28;20102;-76
2023/05/31 09:50:25;;;;;;;0.15;0.15;;;22.30;99.90;;;;;;5081386;28;20262;-77
2023/05/31 09:53:20;;;;;;;2.00;0.63;;;22.50;99.90;;;;;;5068742;28;20061;-76
2023/05/31 09:55:48;;;;;;;0.55;0.55;;;22.50;99.90;;;;;;5069309;28;20040;-76
2023/05/31 09:58:30;;;;;;;0.10;0.10;;;22.80;99.90;;;;;;5044598;28;20037;-77
2023/05/31 10:01:00;;;;;;;;;;;23.20;99.90;;;;;;5063385;28;20060;-76
2023/05/31 10:03:31;;;;;;;0.20;0.20;;;23.30;99.90;;;;;;5042094;28;19909;-75
2023/05/31 10:05:58;;;;;;;0.10;0.10;;;23.20;99.90;;;;;;5082563;28;20510;-77
2023/05/31 10:08:35;;;;;;;0.30;0.30;;;23.00;99.90;;;;;;5082457;28;20055;-77
2023/05/31 10:11:03;;;;;;;0.10;0.10;;;23.00;99.90;;;;;;5055228;28;20032;-76
2023/05/31 10:13:30;;;;;;;0.82;0.82;;;22.90;99.90;;;;;;5070886;28;20041;-76
2023/05/31 10:16:07;;;;;;;0.38;0.38;;;23.10;99.90;;;;;;5042996;28;20025;-75
2023/05/31 10:18:37;;;;;;;1.90;1.05;;;23.10;99.90;;;;;;5061354;28;20016;-77
2023/05/31 10:21:22;;;;;;;0.38;0.38;;;23.20;99.90;;;;;;5061935;28;20025;-76
2023/05/31 10:24:03;;;;;;;0.10;0.10;;;23.30;99.90;;;;;;5044896;28;20487;-77
2023/05/31 10:27:23;;;;;;;0.50;0.50;;;23.50;99.90;;;;;;5061280;28;20236;-76
2023/05/31 10:30:05;;;;;;;0.10;0.10;;;23.60;99.90;;;;;;4972473;28;20078;-76
2023/05/31 10:33:07;;;;;;;0.10;0.10;;;22.30;99.90;;;;;;4965462;29;20046;-79
2023/05/31 10:35:33;;;;;;;0.20;0.20;;;23.40;99.90;;;;;;4965170;29;20028;-76
2023/05/31 10:38:20;;;;;;;0.15;0.15;;;23.70;99.90;;;;;;4964734;29;20039;-77
2023/05/31 10:41:11;;;;;;;0.20;0.20;;;23.70;99.90;;;;;;4929765;29;20048;-75
2023/05/31 10:44:03;;;;;;;0.10;0.10;;;24.00;99.90;;;;;;4924102;29;20040;-76
2023/05/31 10:46:34;;;;;;;0.30;0.30;;;24.30;99.90;;;;;;4899966;29;20232;-77
2023/05/31 10:49:00;;;;;;;0.10;0.10;;;24.60;99.90;;;;;;4902539;29;20043;-74
2023/05/31 10:51:46;;;;;;;0.10;0.10;;;25.00;99.90;;;;;;4900637;29;20271;-75
2023/05/31 10:54:20;;;;;;;0.52;0.32;;;25.40;99.90;;;;;;4881940;29;20124;-75
2023/05/31 10:57:12;;;;;;;0.10;0.10;;;24.80;98.50;;;;;;4882193;29;20471;-76
2023/05/31 10:59:44;;;;;;;0.10;0.10;;;24.80;99.80;;;;;;4884061;29;20045;-74
2023/05/31 11:02:11;;;;;;;0.38;0.38;;;24.50;99.90;;;;;;4882962;29;20667;-77
2023/05/31 11:04:37;;;;;;;1.85;1.65;;;24.00;99.90;;;;;;4898723;29;20338;-74
2023/05/31 11:07:22;;;;;;;0.32;0.32;;;23.80;99.90;;;;;;4983743;28;20038;-74
2023/05/31 11:10:10;;;;;;;0.68;0.65;;;24.00;99.90;;;;;;4999413;28;20104;-74
2023/05/31 11:12:37;;;;;;;0.10;0.10;;;24.10;99.90;;;;;;4995541;28;20447;-75
2023/05/31 11:15:04;;;;;;;0.10;0.10;;;24.40;99.90;;;;;;4998224;28;20699;-75
2023/05/31 11:17:59;;;;;;;0.10;0.10;;;24.90;99.90;;;;;;5001110;28;20425;-80
2023/05/31 11:20:27;;;;;;;1.10;1.00;;;25.30;99.90;;;;;;5023193;28;20395;-76
2023/05/31 11:23:28;;;;;;;0.10;0.10;;;25.70;98.00;;;;;;5041651;28;20037;-75
2023/05/31 11:26:20;;;;;;;0.10;0.10;;;26.00;96.60;;;;;;5043161;28;20026;-76
2023/05/31 11:29:02;;;;;;;0.28;0.28;;;26.00;95.90;;;;;;5023432;28;20115;-76
2023/05/31 11:31:55;;;;;;;0.20;0.20;;;26.30;95.60;;;;;;5022425;28;20032;-75
2023/05/31 11:34:26;;;;;;;0.52;0.32;;;26.60;93.40;;;;;;5020223;28;20032;-76
2023/05/31 11:36:52;;;;;;;0.50;0.50;;;26.90;93.70;;;;;;5042556;28;20093;-75
2023/05/31 11:39:18;;;;;;;0.75;0.30;;;27.50;91.80;;;;;;5050356;28;20029;-74
2023/05/31 11:41:44;;;;;;;0.20;0.20;;;27.70;90.10;;;;;;5050384;28;20032;-75
2023/05/31 11:44:25;;;;;;;0.43;0.43;;;27.70;87.40;;;;;;5033281;28;20063;-75
2023/05/31 11:47:00;;;;;;;0.22;0.22;;;28.10;88.40;;;;;;5051744;28;20275;-75
2023/05/31 11:49:30;;;;;;;0.80;0.73;;;28.00;86.90;;;;;;5048772;28;20028;-75
2023/05/31 11:51:56;;;;;;;1.27;0.95;;;28.30;86.60;;;;;;5012474;28;20237;-75
2023/05/31 11:54:27;;;;;;;0.77;0.77;;;28.60;85.40;;;;;;5057340;28;20041;-75
2023/05/31 11:57:06;;;;;;;0.10;0.10;;;28.80;85.00;;;;;;5042731;28;20048;-76
2023/05/31 11:59:33;;;;;;;0.55;0.55;;;28.80;83.10;;;;;;5061954;28;20032;-76
2023/05/31 12:02:00;;;;;;;0.13;0.13;;;28.90;83.70;;;;;;5060896;28;20049;-75
2023/05/31 12:04:37;;;;;;;1.85;0.57;;;28.70;86.10;;;;;;5060755;28;20024;-76
2023/05/31 12:07:04;;;;;;;0.10;0.10;;;28.40;85.80;;;;;;5059309;28;20049;-76
2023/05/31 12:09:32;;;;;;;0.25;0.25;;;28.50;85.10;;;;;;5040437;28;20032;-76
2023/05/31 12:11:58;;;;;;;0.43;0.43;;;29.00;82.10;;;;;;5062311;28;20016;-75
2023/05/31 12:14:25;;;;;;;1.48;0.75;;;29.70;81.40;;;;;;5063160;28;20135;-76
2023/05/31 12:16:52;;;;;;;0.20;0.20;;;29.90;78.60;;;;;;5064808;28;20049;-75
2023/05/31 12:19:18;;;;;;;0.20;0.20;;;27.30;77.80;;;;;;5064581;28;20016;-79
2023/05/31 12:21:44;;;;;;;0.20;0.20;;;29.90;79.60;;;;;;5063548;28;20094;-76
2023/05/31 12:24:19;;;;;;;0.52;0.30;;;30.10;79.10;;;;;;5063221;28;20024;-77
2023/05/31 12:26:51;;;;;;;0.88;0.70;;;30.40;76.80;;;;;;5048785;28;20028;-83
2023/05/31 12:29:18;;;;;;;0.10;0.10;;;29.60;78.30;;;;;;5030507;28;20029;-79
2023/05/31 12:31:45;;;;;;;0.20;0.20;;;29.70;77.90;;;;;;5062950;28;20077;-76
2023/05/31 12:34:18;;;;;;;0.20;0.20;;;29.90;78.00;;;;;;5061807;28;20169;-77
2023/05/31 12:36:46;;;;;;;0.22;0.22;;;30.20;77.70;;;;;;5063296;28;20032;-76
2023/05/31 12:39:14;;;;;;;0.10;0.10;;;30.60;75.70;;;;;;5061240;28;20076;-82
2023/05/31 12:41:50;;;;;;;0.30;0.28;;;30.60;75.20;;;;;;5061883;28;20021;-75
2023/05/31 12:44:23;;;;;;;0.47;0.40;;;30.70;73.80;;;;;;5062790;28;20043;-77
2023/05/31 12:46:53;;;;;;;0.90;0.65;;;30.10;75.10;;;;;;5063170;28;20033;-75
2023/05/31 12:49:30;;;;;;;0.30;0.30;;;29.80;77.00;;;;;;5062670;28;20562;-75
2023/05/31 12:52:10;;;;;;;0.20;0.20;;;29.30;76.00;;;;;;5044216;28;20035;-74
2023/05/31 12:54:39;;;;;;;0.25;0.25;;;29.40;77.60;;;;;;5046450;28;20178;-86
2023/05/31 12:57:10;;;;;;;0.10;0.10;;;29.20;78.10;;;;;;5048501;28;20033;-78
2023/05/31 12:59:37;;;;;;;0.20;0.20;;;29.40;79.10;;;;;;5068100;28;20040;-76